Time;durP1;ratioP1;P1;durP2;ratioP2;P2;SDS_P1;SDS_P2;PMS_P1;PMS_P2;Temp;Humidity;BMP_temperature;BMP_pressure;BME280_temperature;BME280_humidity;BME280_pressure;Samples;Min_cycle;Max_cycle;Signal;HPM_P1;HPM_P2
2023/05/12 00:02:08;;;;;;;;;;;16.80;35.50;;;;;;21076222;28;20010;-56
2023/05/12 00:12:09;;;;;;;;;;;16.60;37.00;;;;;;21074550;28;20018;-55
2023/05/12 00:22:10;;;;;;;;;;;16.30;37.70;;;;;;21089726;28;20011;-57
2023/05/12 00:32:11;;;;;;;;;;;16.20;38.30;;;;;;21088383;28;20329;-57
2023/05/12 00:42:11;;;;;;;;;;;16.00;38.60;;;;;;21087441;28;20030;-57
2023/05/12 00:52:12;;;;;;;;;;;15.90;39.00;;;;;;21088192;28;20381;-57
2023/05/12 01:02:13;;;;;;;;;;;15.80;39.30;;;;;;21088353;28;20379;-56
2023/05/12 01:12:13;;;;;;;;;;;15.70;39.90;;;;;;21086398;28;19924;-57
2023/05/12 01:22:15;;;;;;;;;;;15.50;40.40;;;;;;21085525;28;19930;-57
2023/05/12 01:32:16;;;;;;;;;;;15.40;40.80;;;;;;21083665;28;19924;-55
2023/05/12 01:42:17;;;;;;;;;;;15.30;41.10;;;;;;21083688;28;19928;-57
2023/05/12 01:52:18;;;;;;;;;;;15.20;41.60;;;;;;21081730;28;19982;-56
2023/05/12 02:02:18;;;;;;;;;;;15.20;42.00;;;;;;21081976;28;19975;-56
2023/05/12 02:12:19;;;;;;;;;;;15.10;42.40;;;;;;21081733;28;20404;-55
2023/05/12 02:22:19;;;;;;;;;;;15.10;42.80;;;;;;21081020;28;19975;-56
2023/05/12 02:32:20;;;;;;;;;;;15.00;43.10;;;;;;21081425;28;20404;-57
2023/05/12 02:42:21;;;;;;;;;;;14.90;43.60;;;;;;21080479;28;19990;-57
2023/05/12 02:52:21;;;;;;;;;;;14.70;43.90;;;;;;21078759;28;19924;-57
2023/05/12 03:02:22;;;;;;;;;;;14.70;44.10;;;;;;21078329;28;19924;-56
2023/05/12 03:12:22;;;;;;;;;;;14.60;44.20;;;;;;21079453;28;20369;-56
2023/05/12 03:22:23;;;;;;;;;;;14.70;44.30;;;;;;21078501;28;20277;-56
2023/05/12 03:32:24;;;;;;;;;;;14.80;44.10;;;;;;21077268;28;19967;-56
2023/05/12 03:42:24;;;;;;;;;;;14.60;44.30;;;;;;21076912;28;20335;-56
2023/05/12 03:52:25;;;;;;;;;;;14.60;44.70;;;;;;21084763;28;19924;-56
2023/05/12 04:02:25;;;;;;;;;;;14.60;44.90;;;;;;21093508;28;19996;-55
2023/05/12 04:12:26;;;;;;;;;;;14.50;45.00;;;;;;21092823;28;19962;-56
2023/05/12 04:22:27;;;;;;;;;;;14.50;45.10;;;;;;21091113;28;19960;-56
2023/05/12 04:32:27;;;;;;;;;;;14.30;45.40;;;;;;21091408;28;19934;-56
2023/05/12 04:42:28;;;;;;;;;;;14.10;45.90;;;;;;21089458;28;20014;-56
2023/05/12 04:52:29;;;;;;;;;;;14.10;46.10;;;;;;21088186;28;20304;-55
2023/05/12 05:02:29;;;;;;;;;;;14.00;46.20;;;;;;21087309;28;19979;-56
2023/05/12 05:12:30;;;;;;;;;;;14.00;46.20;;;;;;21087774;28;19931;-57
2023/05/12 05:22:30;;;;;;;;;;;14.10;46.20;;;;;;21085887;28;19928;-57
2023/05/12 05:32:31;;;;;;;;;;;14.00;46.10;;;;;;21085116;28;19924;-55
2023/05/12 05:42:32;;;;;;;;;;;14.00;46.50;;;;;;21084295;28;19997;-57
2023/05/12 05:52:32;;;;;;;;;;;14.00;46.40;;;;;;21083586;28;20025;-57
2023/05/12 06:02:33;;;;;;;;;;;14.00;46.40;;;;;;21082958;28;19928;-57
2023/05/12 06:12:33;;;;;;;;;;;14.00;46.30;;;;;;21082613;28;19928;-58
2023/05/12 06:22:34;;;;;;;;;;;14.00;46.50;;;;;;21080797;28;19994;-57
2023/05/12 06:32:35;;;;;;;;;;;14.00;46.50;;;;;;21079493;28;19924;-57
2023/05/12 06:42:35;;;;;;;;;;;14.30;45.30;;;;;;21078563;28;20030;-56
2023/05/12 06:52:36;;;;;;;;;;;14.70;44.70;;;;;;21078783;28;20327;-56
2023/05/12 07:02:37;;;;;;;;;;;15.20;43.60;;;;;;21078256;28;19928;-57
2023/05/12 07:12:38;;;;;;;;;;;15.70;41.70;;;;;;21077512;28;19932;-57
2023/05/12 07:22:38;;;;;;;;;;;16.10;41.10;;;;;;21080199;28;19931;-57
2023/05/12 07:32:39;;;;;;;;;;;16.50;40.10;;;;;;21094438;28;19928;-57
2023/05/12 07:42:39;;;;;;;;;;;16.80;40.00;;;;;;21094338;28;19967;-56
2023/05/12 07:52:47;;;;;;;;;;;16.90;38.80;;;;;;21093681;28;20019;-56
2023/05/12 08:02:48;;;;;;;;;;;17.10;38.20;;;;;;21091570;28;19925;-57
2023/05/12 08:12:48;;;;;;;;;;;17.30;38.20;;;;;;21091549;28;20070;-56
2023/05/12 08:22:49;;;;;;;;;;;17.50;37.10;;;;;;21087165;28;20288;-57
2023/05/12 08:32:50;;;;;;;;;;;17.30;37.20;;;;;;21086076;28;19924;-57
2023/05/12 08:43:09;;;;;;;;;;;17.20;37.90;;;;;;21085337;28;19924;-57
2023/05/12 08:53:13;;;;;;;;;;;17.40;37.40;;;;;;21083472;28;19928;-56
2023/05/12 09:03:13;;;;;;;;;;;17.70;36.60;;;;;;21083950;28;19924;-56
2023/05/12 09:13:23;;;;;;;;;;;18.00;35.40;;;;;;21082724;28;19982;-59
2023/05/12 09:23:24;;;;;;;;;;;18.20;34.70;;;;;;21011522;28;2090034;-57
2023/05/12 09:33:25;;;;;;;;;;;18.40;33.80;;;;;;21085400;28;19924;-55
2023/05/12 09:43:25;;;;;;;;;;;19.40;33.60;;;;;;21084329;28;19928;-57
2023/05/12 09:53:26;;;;;;;;;;;19.60;33.00;;;;;;21084298;28;20377;-57
2023/05/12 10:03:28;;;;;;;;;;;19.70;32.40;;;;;;21083085;28;19928;-57
2023/05/12 10:13:30;;;;;;;;;;;19.10;32.60;;;;;;21081598;28;19924;-57
2023/05/12 10:23:31;;;;;;;;;;;19.30;31.90;;;;;;21081490;28;20277;-55
2023/05/12 10:33:32;;;;;;;;;;;19.20;33.00;;;;;;21080632;28;19972;-57
2023/05/12 10:43:41;;;;;;;;;;;19.40;30.80;;;;;;21081075;28;20393;-55
2023/05/12 10:53:43;;;;;;;;;;;19.40;31.80;;;;;;21081135;28;19943;-55
2023/05/12 11:03:43;;;;;;;;;;;19.60;30.10;;;;;;21080065;28;20000;-54
2023/05/12 11:13:44;;;;;;;;;;;19.50;30.60;;;;;;21078901;28;19931;-56
2023/05/12 11:23:48;;;;;;;;;;;19.20;29.90;;;;;;21079797;28;20016;-56
2023/05/12 11:33:49;;;;;;;;;;;19.20;29.10;;;;;;21079042;28;20412;-57
2023/05/12 11:43:51;;;;;;;;;;;19.40;29.90;;;;;;21077050;28;19993;-56
2023/05/12 11:53:52;;;;;;;;;;;19.70;29.10;;;;;;21076050;28;19924;-56
2023/05/12 12:03:53;;;;;;;;;;;19.60;28.80;;;;;;21075315;28;19975;-57
2023/05/12 12:13:57;;;;;;;;;;;19.70;27.90;;;;;;21083807;28;19931;-57
2023/05/12 12:23:58;;;;;;;;;;;19.40;26.90;;;;;;21091824;28;19964;-57
2023/05/12 12:33:58;;;;;;;;;;;19.80;26.60;;;;;;21091955;28;19924;-58
2023/05/12 12:43:59;;;;;;;;;;;19.40;26.80;;;;;;21090024;28;19928;-56
2023/05/12 12:54:00;;;;;;;;;;;19.60;26.50;;;;;;21088293;28;19924;-56
2023/05/12 13:04:00;;;;;;;;;;;19.50;26.30;;;;;;21087354;28;19939;-56
2023/05/12 13:14:03;;;;;;;;;;;19.40;26.20;;;;;;21086471;28;19924;-55
2023/05/12 13:24:03;;;;;;;;;;;19.70;26.00;;;;;;21084230;28;20336;-55
2023/05/12 13:34:04;;;;;;;;;;;19.70;25.70;;;;;;21085387;28;19924;-57
2023/05/12 13:44:05;;;;;;;;;;;19.70;26.60;;;;;;21083692;28;19924;-56
2023/05/12 13:54:05;;;;;;;;;;;20.00;26.30;;;;;;21083256;28;20369;-56
2023/05/12 14:04:06;;;;;;;;;;;20.30;25.90;;;;;;21082536;28;20323;-57
2023/05/12 14:14:07;;;;;;;;;;;20.40;25.40;;;;;;21083266;28;19928;-57
2023/05/12 14:24:07;;;;;;;;;;;20.30;24.60;;;;;;21081740;28;19928;-56
2023/05/12 14:34:08;;;;;;;;;;;20.00;26.60;;;;;;21081457;28;20281;-56
2023/05/12 14:44:10;;;;;;;;;;;19.50;30.10;;;;;;21081297;28;20011;-55
2023/05/12 14:54:10;;;;;;;;;;;19.20;31.20;;;;;;21079771;28;19924;-56
2023/05/12 15:04:12;;;;;;;;;;;18.90;31.30;;;;;;21078396;28;20443;-56
2023/05/12 15:14:12;;;;;;;;;;;18.60;32.00;;;;;;21079318;28;20034;-56
2023/05/12 15:24:13;;;;;;;;;;;18.80;31.00;;;;;;21078546;28;19964;-56
2023/05/12 15:34:14;;;;;;;;;;;18.80;30.20;;;;;;21077599;28;20018;-58
2023/05/12 15:44:15;;;;;;;;;;;18.60;31.30;;;;;;21062003;28;19932;-58
2023/05/12 15:54:16;;;;;;;;;;;18.50;30.10;;;;;;21175491;28;19924;-56
2023/05/12 16:04:17;;;;;;;;;;;18.60;31.30;;;;;;21177160;27;19930;-56
2023/05/12 16:14:17;;;;;;;;;;;18.20;31.00;;;;;;21175355;27;19928;-58
2023/05/12 16:24:18;;;;;;;;;;;18.30;32.00;;;;;;21171769;27;19981;-57
2023/05/12 16:34:19;;;;;;;;;;;18.40;32.80;;;;;;21171403;27;19931;-59
2023/05/12 16:44:19;;;;;;;;;;;18.10;33.30;;;;;;21181155;27;20368;-62
2023/05/12 16:54:20;;;;;;;;;;;18.10;32.20;;;;;;21179715;27;20007;-56
2023/05/12 17:04:20;;;;;;;;;;;17.70;31.00;;;;;;21196654;27;19924;-56
2023/05/12 17:14:22;;;;;;;;;;;17.80;33.00;;;;;;21168300;28;19931;-57
2023/05/12 17:24:23;;;;;;;;;;;17.80;32.10;;;;;;21087501;28;20015;-56
2023/05/12 17:34:23;;;;;;;;;;;17.70;33.50;;;;;;21113306;28;20320;-55
2023/05/12 17:44:24;;;;;;;;;;;17.50;32.40;;;;;;21092045;28;19936;-56
2023/05/12 17:54:25;;;;;;;;;;;17.60;33.90;;;;;;21090410;28;19924;-59
2023/05/12 18:04:25;;;;;;;;;;;17.30;34.10;;;;;;20994595;28;19932;-57
2023/05/12 18:14:28;;;;;;;;;;;17.20;33.30;;;;;;20991430;28;19940;-56
2023/05/12 18:24:28;;;;;;;;;;;17.10;33.80;;;;;;21072426;28;19938;-56
2023/05/12 18:34:29;;;;;;;;;;;17.10;33.50;;;;;;21080102;28;19975;-55
2023/05/12 18:44:30;;;;;;;;;;;16.90;33.70;;;;;;21080332;28;20393;-54
2023/05/12 18:54:30;;;;;;;;;;;17.40;33.50;;;;;;21080442;28;19931;-56
2023/05/12 19:04:31;;;;;;;;;;;17.20;35.00;;;;;;21080542;28;19931;-55
2023/05/12 19:14:31;;;;;;;;;;;17.10;35.00;;;;;;21079497;28;19924;-56
2023/05/12 19:24:32;;;;;;;;;;;17.00;35.00;;;;;;21090448;28;19953;-56
2023/05/12 19:34:33;;;;;;;;;;;16.70;36.20;;;;;;21095403;28;20378;-55
2023/05/12 19:44:33;;;;;;;;;;;16.60;36.70;;;;;;21094773;28;19985;-57
2023/05/12 19:54:34;;;;;;;;;;;16.50;37.10;;;;;;21093565;28;19954;-57
2023/05/12 20:04:35;;;;;;;;;;;16.20;38.20;;;;;;21092907;28;19924;-57
2023/05/12 20:14:37;;;;;;;;;;;15.90;38.40;;;;;;21093073;28;20358;-57
2023/05/12 20:24:37;;;;;;;;;;;16.10;38.10;;;;;;21091050;28;19935;-59
2023/05/12 20:34:38;;;;;;;;;;;15.80;38.50;;;;;;21089476;28;19925;-56
2023/05/12 20:44:39;;;;;;;;;;;15.70;38.70;;;;;;21089494;28;19993;-58
2023/05/12 20:54:40;;;;;;;;;;;15.70;38.60;;;;;;21089719;28;20373;-59
2023/05/12 21:04:40;;;;;;;;;;;15.50;39.00;;;;;;21089259;28;19924;-59
2023/05/12 21:14:42;;;;;;;;;;;15.40;39.20;;;;;;21087663;28;19998;-59
2023/05/12 21:24:43;;;;;;;;;;;15.30;39.50;;;;;;21085514;28;19931;-58
2023/05/12 21:34:44;;;;;;;;;;;15.20;39.80;;;;;;21086601;28;19924;-58
2023/05/12 21:44:48;;;;;;;;;;;15.20;40.00;;;;;;21084619;28;19928;-56
2023/05/12 21:54:49;;;;;;;;;;;15.00;40.70;;;;;;21083359;28;19924;-57
2023/05/12 22:04:49;;;;;;;;;;;14.90;41.20;;;;;;21082670;28;20295;-57
2023/05/12 22:14:50;;;;;;;;;;;14.80;41.50;;;;;;21081822;28;20304;-58
2023/05/12 22:24:50;;;;;;;;;;;14.70;41.80;;;;;;21080706;28;19930;-58
2023/05/12 22:34:52;;;;;;;;;;;14.70;42.20;;;;;;21079453;28;19946;-58
2023/05/12 22:44:52;;;;;;;;;;;14.50;42.20;;;;;;21081044;28;20436;-59
2023/05/12 22:54:53;;;;;;;;;;;14.40;42.40;;;;;;21079512;28;20033;-56
2023/05/12 23:04:54;;;;;;;;;;;14.20;42.90;;;;;;21080098;28;20436;-57
2023/05/12 23:14:54;;;;;;;;;;;14.20;43.40;;;;;;21079748;28;20024;-58
2023/05/12 23:24:57;;;;;;;;;;;14.10;43.70;;;;;;21078149;28;19931;-57
2023/05/12 23:34:57;;;;;;;;;;;13.90;44.00;;;;;;21078267;28;19945;-58
2023/05/12 23:44:58;;;;;;;;;;;13.80;44.70;;;;;;21078802;28;19971;-58
2023/05/12 23:54:58;;;;;;;;;;;13.70;44.80;;;;;;21078255;28;20369;-57
